Time;durP1;ratioP1;P1;durP2;ratioP2;P2;SDS_P1;SDS_P2;PMS_P1;PMS_P2;Temp;Humidity;BMP_temperature;BMP_pressure;BME280_temperature;BME280_humidity;BME280_pressure;Samples;Min_cycle;Max_cycle;Signal;HPM_P1;HPM_P2
2021/01/08 00:00:08;;;;;;;12.90;8.13;;;;;;;;;;5054764;28;20021;-65
2021/01/08 00:02:33;;;;;;;11.63;8.00;;;;;;;;;;5056861;28;20423;-65
2021/01/08 00:04:58;;;;;;;13.50;9.13;;;;;;;;;;5053360;28;20102;-65
2021/01/08 00:07:23;;;;;;;16.37;8.57;;;;;;;;;;5067480;28;20020;-64
2021/01/08 00:09:48;;;;;;;12.93;7.90;;;;;;;;;;5055382;28;20391;-64
2021/01/08 00:12:14;;;;;;;13.77;8.77;;;;;;;;;;5057089;28;20451;-65
2021/01/08 00:14:39;;;;;;;15.90;9.20;;;;;;;;;;5059353;28;20461;-64
2021/01/08 00:17:04;;;;;;;13.13;7.93;;;;;;;;;;5057805;28;20078;-65
2021/01/08 00:19:29;;;;;;;14.77;9.40;;;;;;;;;;5054363;28;20021;-65
2021/01/08 00:21:55;;;;;;;12.27;8.03;;;;;;;;;;5057894;28;20103;-65
2021/01/08 00:24:20;;;;;;;11.53;7.87;;;;;;;;;;5059658;28;20069;-64
2021/01/08 00:26:47;;;;;;;13.40;7.93;;;;;;;;;;5067287;28;20017;-65
2021/01/08 00:29:14;;;;;;;13.40;8.10;;;;;;;;;;5054560;28;20031;-65
2021/01/08 00:31:41;;;;;;;12.10;7.33;;;;;;;;;;5061905;28;20020;-65
2021/01/08 00:34:09;;;;;;;15.43;9.37;;;;;;;;;;5053826;28;20116;-65
2021/01/08 00:36:35;;;;;;;13.13;7.97;;;;;;;;;;5055628;28;20025;-65
2021/01/08 00:39:01;;;;;;;13.17;8.40;;;;;;;;;;5051029;28;20125;-65
2021/01/08 00:41:35;;;;;;;12.97;7.50;;;;;;;;;;5062207;28;20025;-65
2021/01/08 00:44:00;;;;;;;11.90;8.30;;;;;;;;;;5072691;28;20033;-64
2021/01/08 00:46:30;;;;;;;14.97;8.87;;;;;;;;;;5056502;28;20031;-65
2021/01/08 00:48:55;;;;;;;15.00;8.53;;;;;;;;;;5058010;28;20522;-65
2021/01/08 00:51:21;;;;;;;15.87;8.50;;;;;;;;;;5059340;28;20020;-65
2021/01/08 00:53:46;;;;;;;14.30;8.10;;;;;;;;;;5059819;28;20016;-65
2021/01/08 00:56:18;;;;;;;15.93;10.50;;;;;;;;;;5056778;28;20567;-65
2021/01/08 00:58:43;;;;;;;14.97;9.27;;;;;;;;;;5050713;28;20100;-65
2021/01/08 01:01:09;;;;;;;14.37;9.00;;;;;;;;;;5057831;28;20120;-64
2021/01/08 01:03:34;;;;;;;16.57;10.10;;;;;;;;;;5066045;28;21576;-65
2021/01/08 01:05:59;;;;;;;15.47;9.20;;;;;;;;;;5074579;28;20032;-65
2021/01/08 01:08:24;;;;;;;16.73;10.77;;;;;;;;;;5068886;28;20025;-65
2021/01/08 01:10:50;;;;;;;15.97;10.10;;;;;;;;;;5069251;28;20456;-65
2021/01/08 01:13:15;;;;;;;14.87;9.80;;;;;;;;;;5064644;28;20021;-65
2021/01/08 01:15:40;;;;;;;14.40;9.47;;;;;;;;;;5072079;28;20027;-65
2021/01/08 01:18:05;;;;;;;15.30;10.10;;;;;;;;;;5076106;28;20017;-65
2021/01/08 01:20:31;;;;;;;15.73;9.13;;;;;;;;;;5049844;28;20021;-65
2021/01/08 01:22:56;;;;;;;17.50;11.67;;;;;;;;;;5066774;28;21504;-65
2021/01/08 01:25:21;;;;;;;16.83;9.93;;;;;;;;;;5054675;28;20053;-65
2021/01/08 01:27:46;;;;;;;16.93;10.13;;;;;;;;;;5055435;28;20029;-65
2021/01/08 01:30:12;;;;;;;17.67;11.03;;;;;;;;;;5053666;28;20021;-65
2021/01/08 01:32:38;;;;;;;17.33;10.90;;;;;;;;;;5077936;28;20020;-65
2021/01/08 01:35:04;;;;;;;16.87;10.83;;;;;;;;;;5067021;28;20171;-65
2021/01/08 01:37:29;;;;;;;19.40;11.80;;;;;;;;;;5059184;28;20024;-65
2021/01/08 01:39:54;;;;;;;17.87;10.53;;;;;;;;;;5059951;28;20021;-65
2021/01/08 01:42:19;;;;;;;17.40;11.67;;;;;;;;;;5075014;28;20043;-65
2021/01/08 01:44:44;;;;;;;15.97;10.63;;;;;;;;;;5061981;28;20367;-65
2021/01/08 01:47:10;;;;;;;19.70;11.43;;;;;;;;;;5075479;28;20478;-65
2021/01/08 01:49:35;;;;;;;16.90;10.67;;;;;;;;;;5066175;28;20025;-65
2021/01/08 01:52:00;;;;;;;17.33;10.83;;;;;;;;;;5069989;28;20027;-65
2021/01/08 01:54:26;;;;;;;15.83;10.23;;;;;;;;;;5059440;28;20074;-65
2021/01/08 01:56:51;;;;;;;18.07;10.77;;;;;;;;;;5065930;28;20343;-65
2021/01/08 01:59:16;;;;;;;16.40;11.00;;;;;;;;;;5052899;28;20071;-65
2021/01/08 02:01:41;;;;;;;19.43;13.80;;;;;;;;;;5079298;28;20016;-65
2021/01/08 02:04:06;;;;;;;19.60;11.43;;;;;;;;;;5076892;28;20073;-65
2021/01/08 02:06:33;;;;;;;19.80;12.03;;;;;;;;;;5071118;28;20074;-65
2021/01/08 02:09:02;;;;;;;16.47;10.47;;;;;;;;;;5065387;28;20021;-65
2021/01/08 02:11:28;;;;;;;18.73;11.70;;;;;;;;;;5065324;28;20021;-65
2021/01/08 02:13:57;;;;;;;18.90;11.50;;;;;;;;;;5064022;28;20116;-65
2021/01/08 02:16:24;;;;;;;16.27;11.23;;;;;;;;;;5067739;28;20104;-65
2021/01/08 02:18:51;;;;;;;19.67;11.73;;;;;;;;;;5057896;28;20020;-65
2021/01/08 02:21:18;;;;;;;19.67;12.70;;;;;;;;;;5067508;28;20070;-64
2021/01/08 02:23:51;;;;;;;21.23;11.80;;;;;;;;;;5073547;28;20533;-65
2021/01/08 02:26:17;;;;;;;18.60;10.70;;;;;;;;;;5074435;28;20017;-65
2021/01/08 02:28:44;;;;;;;16.20;10.50;;;;;;;;;;5079717;28;20047;-65
2021/01/08 02:31:09;;;;;;;17.87;11.33;;;;;;;;;;5071262;28;20024;-65
2021/01/08 02:33:34;;;;;;;18.37;11.53;;;;;;;;;;5072291;28;20383;-65
2021/01/08 02:36:00;;;;;;;16.57;10.70;;;;;;;;;;5075727;28;20027;-65
2021/01/08 02:38:26;;;;;;;16.47;11.33;;;;;;;;;;5067109;28;20067;-65
2021/01/08 02:40:52;;;;;;;18.70;10.60;;;;;;;;;;5056080;28;20492;-65
2021/01/08 02:43:25;;;;;;;19.07;13.10;;;;;;;;;;5069084;28;20364;-65
2021/01/08 02:45:51;;;;;;;19.10;11.30;;;;;;;;;;5077142;28;20043;-65
2021/01/08 02:48:17;;;;;;;18.73;11.37;;;;;;;;;;5055450;28;20025;-64
2021/01/08 02:50:43;;;;;;;16.60;11.23;;;;;;;;;;5061629;28;20017;-63
2021/01/08 02:53:09;;;;;;;17.50;10.50;;;;;;;;;;5066917;28;20102;-63
2021/01/08 02:55:35;;;;;;;17.03;10.83;;;;;;;;;;5057549;28;20021;-63
2021/01/08 02:58:02;;;;;;;18.77;12.10;;;;;;;;;;5055040;28;20158;-63
2021/01/08 03:00:28;;;;;;;17.17;10.93;;;;;;;;;;5053989;28;20052;-63
2021/01/08 03:02:54;;;;;;;17.93;11.37;;;;;;;;;;5060325;28;20471;-63
2021/01/08 03:05:20;;;;;;;17.93;11.07;;;;;;;;;;5074656;28;20082;-63
2021/01/08 03:07:46;;;;;;;19.20;11.80;;;;;;;;;;5072517;28;20020;-64
2021/01/08 03:10:11;;;;;;;16.70;9.63;;;;;;;;;;5069661;28;20028;-63
2021/01/08 03:12:36;;;;;;;16.80;10.93;;;;;;;;;;5073351;28;20119;-64
2021/01/08 03:15:03;;;;;;;17.47;11.87;;;;;;;;;;5073189;28;20024;-64
2021/01/08 03:17:29;;;;;;;17.87;12.13;;;;;;;;;;5082992;28;20039;-64
2021/01/08 03:19:54;;;;;;;18.90;11.20;;;;;;;;;;5071035;28;20090;-64
2021/01/08 03:22:19;;;;;;;16.80;11.27;;;;;;;;;;5073194;28;20024;-64
2021/01/08 03:24:44;;;;;;;18.83;11.60;;;;;;;;;;5071227;28;20052;-64
2021/01/08 03:27:09;;;;;;;18.20;11.67;;;;;;;;;;5072681;28;20059;-64
2021/01/08 03:29:35;;;;;;;20.20;12.77;;;;;;;;;;5070878;28;20494;-64
2021/01/08 03:32:00;;;;;;;18.13;10.90;;;;;;;;;;5072498;28;20028;-64
2021/01/08 03:34:25;;;;;;;19.03;12.17;;;;;;;;;;5090954;28;20051;-64
2021/01/08 03:36:50;;;;;;;18.83;11.20;;;;;;;;;;5084127;28;20475;-64
2021/01/08 03:39:16;;;;;;;21.40;11.73;;;;;;;;;;5070261;28;20096;-64
2021/01/08 03:41:41;;;;;;;19.93;12.83;;;;;;;;;;5069649;28;20032;-64
2021/01/08 03:44:06;;;;;;;20.30;12.73;;;;;;;;;;5073408;28;20032;-64
2021/01/08 03:46:36;;;;;;;21.23;14.03;;;;;;;;;;5074813;28;20020;-64
2021/01/08 03:49:05;;;;;;;18.40;12.03;;;;;;;;;;5064625;28;20114;-65
2021/01/08 03:51:30;;;;;;;19.10;12.67;;;;;;;;;;5069016;28;20031;-64
2021/01/08 03:53:55;;;;;;;18.30;11.20;;;;;;;;;;5068852;28;20020;-64
2021/01/08 03:56:21;;;;;;;20.03;12.27;;;;;;;;;;5071757;28;20012;-65
2021/01/08 03:58:47;;;;;;;19.07;12.70;;;;;;;;;;5064394;28;20466;-65
2021/01/08 04:01:13;;;;;;;18.73;11.70;;;;;;;;;;5069784;28;20020;-64
2021/01/08 04:03:38;;;;;;;22.07;13.60;;;;;;;;;;5073046;28;20374;-65
2021/01/08 04:06:03;;;;;;;19.50;13.67;;;;;;;;;;5078950;28;20462;-64
2021/01/08 04:08:28;;;;;;;18.07;11.87;;;;;;;;;;5089001;28;20021;-64
2021/01/08 04:10:54;;;;;;;19.53;12.10;;;;;;;;;;5070353;28;20021;-64
2021/01/08 04:13:19;;;;;;;22.13;14.53;;;;;;;;;;5066577;28;20021;-64
2021/01/08 04:15:44;;;;;;;19.23;12.37;;;;;;;;;;5077051;28;20609;-64
2021/01/08 04:18:09;;;;;;;17.77;11.43;;;;;;;;;;5070851;28;20028;-64
2021/01/08 04:20:34;;;;;;;17.37;10.47;;;;;;;;;;5049139;28;20032;-64
2021/01/08 04:23:00;;;;;;;19.50;12.27;;;;;;;;;;5071980;28;20121;-64
2021/01/08 04:25:25;;;;;;;18.50;11.80;;;;;;;;;;5057071;28;20074;-64
2021/01/08 04:27:50;;;;;;;19.63;12.33;;;;;;;;;;5077503;28;20475;-64
2021/01/08 04:30:16;;;;;;;18.03;11.03;;;;;;;;;;5069457;28;20032;-64
2021/01/08 04:32:41;;;;;;;19.63;13.70;;;;;;;;;;5071264;28;20028;-64
2021/01/08 04:35:07;;;;;;;15.90;10.53;;;;;;;;;;5065345;28;20546;-65
2021/01/08 04:37:32;;;;;;;9.77;6.20;;;;;;;;;;5082369;28;20034;-64
2021/01/08 04:39:57;;;;;;;15.30;10.57;;;;;;;;;;5069620;28;20013;-65
2021/01/08 04:42:22;;;;;;;16.10;10.20;;;;;;;;;;5070511;28;20032;-65
2021/01/08 04:44:47;;;;;;;15.57;10.40;;;;;;;;;;5072652;28;20033;-65
2021/01/08 04:47:13;;;;;;;12.60;9.67;;;;;;;;;;5072634;28;20074;-64
2021/01/08 04:49:39;;;;;;;16.83;10.53;;;;;;;;;;5078164;28;20538;-64
2021/01/08 04:52:07;;;;;;;4.57;2.43;;;;;;;;;;5059269;28;20021;-64
2021/01/08 04:54:32;;;;;;;15.10;9.37;;;;;;;;;;5063815;28;20024;-64
2021/01/08 04:56:58;;;;;;;7.37;3.83;;;;;;;;;;5066804;28;20023;-63
2021/01/08 04:59:25;;;;;;;17.30;11.50;;;;;;;;;;5068269;28;20024;-64
2021/01/08 05:01:50;;;;;;;14.27;9.33;;;;;;;;;;5090196;28;20024;-64
2021/01/08 05:04:15;;;;;;;18.83;13.17;;;;;;;;;;5075035;28;20482;-64
2021/01/08 05:06:41;;;;;;;15.83;10.33;;;;;;;;;;5070712;28;20496;-64
2021/01/08 05:09:06;;;;;;;12.20;8.53;;;;;;;;;;5067175;28;20086;-64
2021/01/08 05:11:31;;;;;;;13.27;9.33;;;;;;;;;;5063687;28;20468;-64
2021/01/08 05:14:00;;;;;;;16.03;10.47;;;;;;;;;;5070931;28;20050;-64
2021/01/08 05:16:27;;;;;;;17.70;11.87;;;;;;;;;;5076517;28;20020;-64
2021/01/08 05:18:53;;;;;;;17.23;11.87;;;;;;;;;;5069019;28;20700;-64
2021/01/08 05:21:18;;;;;;;14.90;9.23;;;;;;;;;;5072431;28;20029;-64
2021/01/08 05:23:43;;;;;;;15.00;9.53;;;;;;;;;;5062331;28;20040;-64
2021/01/08 05:26:15;;;;;;;14.87;9.83;;;;;;;;;;5063921;28;20024;-64
2021/01/08 05:28:46;;;;;;;15.77;11.30;;;;;;;;;;5068628;28;20665;-65
2021/01/08 05:31:11;;;;;;;10.23;5.90;;;;;;;;;;5071609;28;20021;-65
2021/01/08 05:33:37;;;;;;;12.90;9.10;;;;;;;;;;5070323;28;20035;-64
2021/01/08 05:36:02;;;;;;;17.30;11.10;;;;;;;;;;5056288;28;20094;-63
2021/01/08 05:38:28;;;;;;;15.27;9.97;;;;;;;;;;5069111;28;20028;-64
2021/01/08 05:41:00;;;;;;;14.80;9.63;;;;;;;;;;5070154;28;20439;-64
2021/01/08 05:43:25;;;;;;;16.93;10.30;;;;;;;;;;5071971;28;20474;-64
2021/01/08 05:45:50;;;;;;;16.93;11.87;;;;;;;;;;5070563;28;20021;-65
2021/01/08 05:48:16;;;;;;;20.53;13.10;;;;;;;;;;5062397;28;20020;-64
2021/01/08 05:50:42;;;;;;;19.77;14.57;;;;;;;;;;5074647;28;20016;-64
2021/01/08 05:53:09;;;;;;;21.43;14.07;;;;;;;;;;5051908;28;20029;-64
2021/01/08 05:55:41;;;;;;;16.10;10.87;;;;;;;;;;5079961;28;20020;-65
2021/01/08 05:58:22;;;;;;;19.33;14.20;;;;;;;;;;5073403;28;20020;-64
2021/01/08 06:00:58;;;;;;;18.97;12.00;;;;;;;;;;5068670;28;20102;-64
2021/01/08 06:03:23;;;;;;;16.08;10.88;;;;;;;;;;5069083;28;20031;-64
2021/01/08 06:05:52;;;;;;;17.17;12.20;;;;;;;;;;5076227;28;20094;-64
2021/01/08 06:08:20;;;;;;;16.00;10.93;;;;;;;;;;5057076;28;20079;-65
2021/01/08 06:10:50;;;;;;;17.87;11.17;;;;;;;;;;5081939;28;20021;-65
2021/01/08 06:13:15;;;;;;;16.50;11.63;;;;;;;;;;5054828;28;20525;-64
2021/01/08 06:15:41;;;;;;;15.07;11.20;;;;;;;;;;5061952;28;20044;-64
2021/01/08 06:18:06;;;;;;;16.33;10.57;;;;;;;;;;5054858;28;20062;-65
2021/01/08 06:20:31;;;;;;;15.13;11.73;;;;;;;;;;5056581;28;20051;-65
2021/01/08 06:22:57;;;;;;;15.60;10.73;;;;;;;;;;5059092;28;20112;-64
2021/01/08 06:25:23;;;;;;;12.63;8.27;;;;;;;;;;5069752;28;20410;-64
2021/01/08 06:27:52;;;;;;;10.43;7.20;;;;;;;;;;5093446;28;20396;-64
2021/01/08 06:30:21;;;;;;;12.37;8.57;;;;;;;;;;5086250;28;20042;-64
2021/01/08 06:32:47;;;;;;;12.63;8.33;;;;;;;;;;5073512;28;20016;-65
2021/01/08 06:35:16;;;;;;;12.23;8.40;;;;;;;;;;5073106;28;20027;-65
2021/01/08 06:37:42;;;;;;;15.87;10.80;;;;;;;;;;5060641;28;20079;-64
2021/01/08 06:40:12;;;;;;;15.20;11.00;;;;;;;;;;5053574;28;20104;-65
2021/01/08 06:42:51;;;;;;;13.83;9.70;;;;;;;;;;5078100;28;20024;-65
2021/01/08 06:45:17;;;;;;;15.00;11.70;;;;;;;;;;5054435;28;20104;-64
2021/01/08 06:47:46;;;;;;;12.60;8.87;;;;;;;;;;5062589;28;20021;-64
2021/01/08 06:50:20;;;;;;;15.17;12.47;;;;;;;;;;5059654;28;20023;-64
2021/01/08 06:52:46;;;;;;;12.60;9.07;;;;;;;;;;5070427;28;20024;-64
2021/01/08 06:55:17;;;;;;;12.30;8.97;;;;;;;;;;5072632;28;20095;-65
2021/01/08 06:57:49;;;;;;;12.10;10.00;;;;;;;;;;5065590;28;20020;-64
2021/01/08 07:00:16;;;;;;;11.93;9.40;;;;;;;;;;5066602;28;20060;-64
2021/01/08 07:02:42;;;;;;;12.97;9.77;;;;;;;;;;5071407;28;20035;-65
2021/01/08 07:05:07;;;;;;;10.83;7.43;;;;;;;;;;5078273;28;20498;-64
2021/01/08 07:07:33;;;;;;;11.93;8.30;;;;;;;;;;5053769;28;20031;-65
2021/01/08 07:10:00;;;;;;;5.70;3.43;;;;;;;;;;5062767;28;20024;-65
2021/01/08 07:12:26;;;;;;;10.90;8.13;;;;;;;;;;5072249;28;20032;-65
2021/01/08 07:14:53;;;;;;;11.57;9.13;;;;;;;;;;5074215;28;20021;-64
2021/01/08 07:17:27;;;;;;;11.70;7.90;;;;;;;;;;5060667;28;20060;-64
2021/01/08 07:19:53;;;;;;;8.38;5.65;;;;;;;;;;5083807;28;20023;-65
2021/01/08 07:22:19;;;;;;;9.00;7.30;;;;;;;;;;5065786;28;20024;-65
2021/01/08 07:24:47;;;;;;;10.60;7.70;;;;;;;;;;5059849;28;20048;-65
2021/01/08 07:27:18;;;;;;;12.13;8.23;;;;;;;;;;5052903;28;20021;-65
2021/01/08 07:29:49;;;;;;;9.80;6.87;;;;;;;;;;5061751;28;20024;-65
2021/01/08 07:32:17;;;;;;;12.40;8.87;;;;;;;;;;5079676;28;20054;-64
2021/01/08 07:34:43;;;;;;;10.77;7.63;;;;;;;;;;5093814;28;20016;-65
2021/01/08 07:37:08;;;;;;;6.97;5.10;;;;;;;;;;5094180;28;20043;-64
2021/01/08 07:39:40;;;;;;;4.20;2.67;;;;;;;;;;5061915;28;20055;-64
2021/01/08 07:42:34;;;;;;;8.60;7.70;;;;;;;;;;5069622;28;20063;-65
2021/01/08 07:45:00;;;;;;;9.47;7.30;;;;;;;;;;5048353;28;20127;-64
2021/01/08 07:47:27;;;;;;;8.57;5.67;;;;;;;;;;5073005;28;20447;-64
2021/01/08 07:50:11;;;;;;;8.07;6.27;;;;;;;;;;5068335;28;20028;-65
2021/01/08 07:52:37;;;;;;;5.43;3.73;;;;;;;;;;5075789;28;20036;-65
2021/01/08 07:55:02;;;;;;;9.57;6.57;;;;;;;;;;5073419;28;20028;-65
2021/01/08 07:57:28;;;;;;;8.93;6.10;;;;;;;;;;5066232;28;20103;-64
2021/01/08 07:59:53;;;;;;;9.67;6.83;;;;;;;;;;5065963;28;20077;-65
2021/01/08 08:02:19;;;;;;;11.57;7.03;;;;;;;;;;5066353;28;20078;-64
2021/01/08 08:04:44;;;;;;;9.20;6.60;;;;;;;;;;5073255;28;20082;-64
2021/01/08 08:07:11;;;;;;;7.30;5.67;;;;;;;;;;5072022;28;20392;-64
2021/01/08 08:09:36;;;;;;;4.40;2.53;;;;;;;;;;5052658;28;20425;-64
2021/01/08 08:12:07;;;;;;;7.60;5.67;;;;;;;;;;5055018;28;20020;-64
2021/01/08 08:14:32;;;;;;;7.17;5.37;;;;;;;;;;5064597;28;20070;-65
2021/01/08 08:16:58;;;;;;;8.33;6.20;;;;;;;;;;5063158;28;20505;-64
2021/01/08 08:19:31;;;;;;;7.47;5.40;;;;;;;;;;5060765;28;20024;-64
2021/01/08 08:21:56;;;;;;;7.17;4.87;;;;;;;;;;5057487;28;20032;-64
2021/01/08 08:24:21;;;;;;;8.37;6.10;;;;;;;;;;5062014;28;20044;-64
2021/01/08 08:26:47;;;;;;;7.77;5.53;;;;;;;;;;5065441;28;20078;-64
2021/01/08 08:29:13;;;;;;;6.77;5.00;;;;;;;;;;5059350;28;20021;-64
2021/01/08 08:31:41;;;;;;;4.87;4.10;;;;;;;;;;5062203;28;20020;-64
2021/01/08 08:34:10;;;;;;;6.07;5.13;;;;;;;;;;5067769;28;20483;-64
2021/01/08 08:36:35;;;;;;;6.13;4.37;;;;;;;;;;5068466;28;20031;-64
2021/01/08 08:39:05;;;;;;;7.53;5.37;;;;;;;;;;5059195;28;20016;-64
2021/01/08 08:41:31;;;;;;;6.03;4.60;;;;;;;;;;5062868;28;20383;-64
2021/01/08 08:44:03;;;;;;;7.67;5.87;;;;;;;;;;5070637;28;20044;-64
2021/01/08 08:46:42;;;;;;;8.30;6.23;;;;;;;;;;5069879;28;20029;-64
2021/01/08 08:49:09;;;;;;;7.10;5.43;;;;;;;;;;5068376;28;20033;-64
2021/01/08 08:51:34;;;;;;;2.87;2.07;;;;;;;;;;5066557;28;20025;-64
2021/01/08 08:53:59;;;;;;;7.97;6.00;;;;;;;;;;5070178;28;20020;-63
2021/01/08 08:56:24;;;;;;;7.47;6.67;;;;;;;;;;5066750;28;20013;-64
2021/01/08 08:58:50;;;;;;;7.03;5.83;;;;;;;;;;5059262;28;20514;-63
2021/01/08 09:01:15;;;;;;;5.87;4.70;;;;;;;;;;5068242;28;20020;-63
2021/01/08 09:03:40;;;;;;;7.37;6.67;;;;;;;;;;5051352;28;20036;-62
2021/01/08 09:06:09;;;;;;;6.13;5.17;;;;;;;;;;5065873;28;20082;-63
2021/01/08 09:08:37;;;;;;;6.43;5.30;;;;;;;;;;5062938;28;20204;-63
2021/01/08 09:11:05;;;;;;;6.07;5.37;;;;;;;;;;5057959;28;20096;-62
2021/01/08 09:13:36;;;;;;;4.37;3.17;;;;;;;;;;5065455;28;20020;-63
2021/01/08 09:16:13;;;;;;;5.50;3.53;;;;;;;;;;5067171;28;20062;-63
2021/01/08 09:18:38;;;;;;;3.47;3.00;;;;;;;;;;5067459;28;20274;-62
2021/01/08 09:21:07;;;;;;;5.17;3.83;;;;;;;;;;5066298;28;20414;-63
2021/01/08 09:23:34;;;;;;;7.47;6.70;;;;;;;;;;5062075;28;20048;-63
2021/01/08 09:26:05;;;;;;;5.87;5.17;;;;;;;;;;5070906;28;20035;-63
2021/01/08 09:28:38;;;;;;;4.10;3.23;;;;;;;;;;5061113;28;20017;-64
2021/01/08 09:31:04;;;;;;;6.80;6.10;;;;;;;;;;5069999;28;20051;-64
2021/01/08 09:33:29;;;;;;;6.10;4.47;;;;;;;;;;5072150;28;20410;-63
2021/01/08 09:35:54;;;;;;;5.27;4.10;;;;;;;;;;5072854;28;20459;-64
2021/01/08 09:38:23;;;;;;;8.47;5.97;;;;;;;;;;5057843;28;20498;-65
2021/01/08 09:40:48;;;;;;;8.37;5.20;;;;;;;;;;5066490;28;20020;-65
2021/01/08 09:43:18;;;;;;;7.27;5.47;;;;;;;;;;5057835;28;20086;-65
2021/01/08 09:45:43;;;;;;;5.83;5.23;;;;;;;;;;5060009;28;20391;-64
2021/01/08 09:48:35;;;;;;;8.77;7.70;;;;;;;;;;5058583;28;20025;-64
2021/01/08 09:51:01;;;;;;;9.33;8.00;;;;;;;;;;5059852;28;20113;-65
2021/01/08 09:53:26;;;;;;;7.17;5.50;;;;;;;;;;5069674;28;20455;-65
2021/01/08 09:55:51;;;;;;;8.30;7.17;;;;;;;;;;5071861;28;20027;-65
2021/01/08 09:58:17;;;;;;;9.90;7.63;;;;;;;;;;5071747;28;20467;-65
2021/01/08 10:00:42;;;;;;;8.40;7.50;;;;;;;;;;5061736;28;20123;-63
2021/01/08 10:03:17;;;;;;;7.87;6.17;;;;;;;;;;5061106;28;20351;-63
2021/01/08 10:05:42;;;;;;;4.57;2.97;;;;;;;;;;5075065;28;20182;-64
2021/01/08 10:08:17;;;;;;;8.60;4.83;;;;;;;;;;5068502;28;20115;-63
2021/01/08 10:10:42;;;;;;;4.25;2.13;;;;;;;;;;5053284;28;20019;-64
2021/01/08 10:13:17;;;;;;;6.83;4.40;;;;;;;;;;5069476;28;20036;-64
2021/01/08 10:15:48;;;;;;;7.32;6.15;;;;;;;;;;5075334;28;20021;-64
2021/01/08 10:18:15;;;;;;;6.97;5.37;;;;;;;;;;5055997;28;20122;-64
2021/01/08 10:20:47;;;;;;;7.30;4.67;;;;;;;;;;5057373;28;20513;-64
2021/01/08 10:23:14;;;;;;;6.10;5.27;;;;;;;;;;5064078;28;20024;-64
2021/01/08 10:25:39;;;;;;;8.20;6.63;;;;;;;;;;5066817;28;20113;-64
2021/01/08 10:28:09;;;;;;;7.40;5.97;;;;;;;;;;5072027;28;20055;-64
2021/01/08 10:30:34;;;;;;;8.07;6.13;;;;;;;;;;5056206;28;20021;-63
2021/01/08 10:32:59;;;;;;;6.27;5.57;;;;;;;;;;5059236;28;20229;-63
2021/01/08 10:35:25;;;;;;;5.93;4.50;;;;;;;;;;5062318;28;20013;-63
2021/01/08 10:37:50;;;;;;;6.73;5.17;;;;;;;;;;5059959;28;20381;-63
2021/01/08 10:40:15;;;;;;;6.43;4.53;;;;;;;;;;5070372;28;20016;-64
2021/01/08 10:42:40;;;;;;;6.17;3.80;;;;;;;;;;5070664;28;20008;-63
2021/01/08 10:45:06;;;;;;;6.00;5.13;;;;;;;;;;5065000;28;20013;-64
2021/01/08 10:47:31;;;;;;;8.17;5.57;;;;;;;;;;5061064;28;20117;-64
2021/01/08 10:49:59;;;;;;;6.87;5.57;;;;;;;;;;5057895;28;20414;-64
2021/01/08 10:52:25;;;;;;;7.73;5.17;;;;;;;;;;5068947;28;20029;-64
2021/01/08 10:54:50;;;;;;;6.47;4.70;;;;;;;;;;5078176;28;20387;-64
2021/01/08 10:57:16;;;;;;;8.93;6.23;;;;;;;;;;5066996;28;20086;-64
2021/01/08 10:59:41;;;;;;;7.80;6.37;;;;;;;;;;5062456;28;20426;-62
2021/01/08 11:02:06;;;;;;;4.50;3.57;;;;;;;;;;5065672;28;20103;-63
2021/01/08 11:04:31;;;;;;;8.43;6.13;;;;;;;;;;5066546;28;20028;-63
2021/01/08 11:06:57;;;;;;;4.03;2.40;;;;;;;;;;5071506;28;20029;-64
2021/01/08 11:09:22;;;;;;;10.10;7.27;;;;;;;;;;5067921;28;20021;-63
2021/01/08 11:11:48;;;;;;;11.10;7.17;;;;;;;;;;5070294;28;20063;-65
2021/01/08 11:14:13;;;;;;;9.87;7.23;;;;;;;;;;5057874;28;20009;-64
2021/01/08 11:16:38;;;;;;;9.43;7.83;;;;;;;;;;5060300;28;20092;-65
2021/01/08 11:19:03;;;;;;;8.57;6.00;;;;;;;;;;5048682;28;20028;-64
2021/01/08 11:21:29;;;;;;;4.13;2.77;;;;;;;;;;5061852;28;20040;-64
2021/01/08 11:23:54;;;;;;;9.23;6.53;;;;;;;;;;5039559;28;603673;-65
2021/01/08 11:26:23;;;;;;;8.07;5.37;;;;;;;;;;5053939;28;20391;-64
2021/01/08 11:28:48;;;;;;;5.43;3.83;;;;;;;;;;5049177;28;20474;-63
2021/01/08 11:31:13;;;;;;;7.97;5.83;;;;;;;;;;5065651;28;20020;-64
2021/01/08 11:33:39;;;;;;;3.67;2.13;;;;;;;;;;5070826;28;20383;-64
2021/01/08 11:36:04;;;;;;;7.50;4.80;;;;;;;;;;5060413;28;20025;-64
2021/01/08 11:38:29;;;;;;;9.90;6.27;;;;;;;;;;5060348;28;20027;-64
2021/01/08 11:40:54;;;;;;;6.43;4.20;;;;;;;;;;5070058;28;20108;-64
2021/01/08 11:43:20;;;;;;;8.50;6.10;;;;;;;;;;5060805;28;20111;-64
2021/01/08 11:45:45;;;;;;;10.73;7.57;;;;;;;;;;5072296;28;20067;-64
2021/01/08 11:48:10;;;;;;;7.53;6.07;;;;;;;;;;5073374;28;20031;-64
2021/01/08 11:50:36;;;;;;;7.07;5.43;;;;;;;;;;5059020;28;20438;-64
2021/01/08 11:53:01;;;;;;;8.67;6.47;;;;;;;;;;5052948;28;20262;-64
2021/01/08 11:55:26;;;;;;;9.00;6.37;;;;;;;;;;5069253;28;20017;-64
2021/01/08 11:57:51;;;;;;;7.80;6.67;;;;;;;;;;5071364;28;20086;-64
2021/01/08 12:00:17;;;;;;;8.90;6.10;;;;;;;;;;5057639;28;20100;-64
2021/01/08 12:02:43;;;;;;;6.00;4.23;;;;;;;;;;5059641;28;20119;-64
2021/01/08 12:05:08;;;;;;;6.03;5.20;;;;;;;;;;5073497;28;20024;-64
2021/01/08 12:07:34;;;;;;;8.47;6.80;;;;;;;;;;5067212;28;20103;-64
2021/01/08 12:09:59;;;;;;;7.30;6.10;;;;;;;;;;5054940;28;20039;-64
2021/01/08 12:12:24;;;;;;;10.70;5.37;;;;;;;;;;5056456;28;20019;-64
2021/01/08 12:14:50;;;;;;;7.87;6.67;;;;;;;;;;5079114;28;20036;-64
2021/01/08 12:17:15;;;;;;;9.20;6.80;;;;;;;;;;5053852;28;20024;-64
2021/01/08 12:19:40;;;;;;;10.13;7.70;;;;;;;;;;5063639;28;20451;-64
2021/01/08 12:22:05;;;;;;;8.30;6.80;;;;;;;;;;5070560;28;20021;-64
2021/01/08 12:24:31;;;;;;;7.63;6.13;;;;;;;;;;5068111;28;20044;-64
2021/01/08 12:26:56;;;;;;;6.57;5.00;;;;;;;;;;5061417;28;20364;-64
2021/01/08 12:29:22;;;;;;;5.17;3.70;;;;;;;;;;5064334;28;20035;-64
2021/01/08 12:31:47;;;;;;;6.40;4.27;;;;;;;;;;5055614;28;20055;-64
2021/01/08 12:34:13;;;;;;;4.40;3.27;;;;;;;;;;5081248;28;20048;-64
2021/01/08 12:36:38;;;;;;;6.00;4.20;;;;;;;;;;5056464;28;20108;-64
2021/01/08 12:39:04;;;;;;;7.67;6.23;;;;;;;;;;5059894;28;20501;-64
2021/01/08 12:41:30;;;;;;;7.43;5.73;;;;;;;;;;5058662;28;20025;-63
2021/01/08 12:43:55;;;;;;;7.60;5.10;;;;;;;;;;5058466;28;20391;-64
2021/01/08 12:46:21;;;;;;;7.27;4.80;;;;;;;;;;5071340;28;20100;-63
2021/01/08 12:48:46;;;;;;;9.17;6.40;;;;;;;;;;5067659;28;20028;-63
2021/01/08 12:51:11;;;;;;;7.53;4.90;;;;;;;;;;5059628;28;20438;-63
2021/01/08 12:53:36;;;;;;;6.93;5.30;;;;;;;;;;5054902;28;20017;-63
2021/01/08 12:56:03;;;;;;;9.30;5.60;;;;;;;;;;5052323;28;20047;-64
2021/01/08 12:58:30;;;;;;;10.73;7.47;;;;;;;;;;5050486;28;20029;-63
2021/01/08 13:00:55;;;;;;;10.20;6.93;;;;;;;;;;5057116;28;20490;-63
2021/01/08 13:03:20;;;;;;;7.70;5.17;;;;;;;;;;5054096;28;20020;-63
2021/01/08 13:05:46;;;;;;;9.80;7.37;;;;;;;;;;5051555;28;20041;-63
2021/01/08 13:08:11;;;;;;;9.17;6.60;;;;;;;;;;5070928;28;20025;-63
2021/01/08 13:10:36;;;;;;;9.50;6.00;;;;;;;;;;5067489;28;20020;-63
2021/01/08 13:13:01;;;;;;;6.33;4.67;;;;;;;;;;5061342;28;20407;-63
2021/01/08 13:15:27;;;;;;;8.20;5.63;;;;;;;;;;5067580;28;20406;-63
2021/01/08 13:17:52;;;;;;;9.00;6.10;;;;;;;;;;5070885;28;20020;-63
2021/01/08 13:20:17;;;;;;;7.23;5.50;;;;;;;;;;5058689;28;20029;-63
2021/01/08 13:22:42;;;;;;;6.10;4.50;;;;;;;;;;5057973;28;20023;-63
2021/01/08 13:25:08;;;;;;;6.63;3.57;;;;;;;;;;5052658;28;20098;-63
2021/01/08 13:27:37;;;;;;;7.40;5.50;;;;;;;;;;5051785;28;20048;-63
2021/01/08 13:30:03;;;;;;;6.87;5.57;;;;;;;;;;5058389;28;20024;-63
2021/01/08 13:32:28;;;;;;;7.40;5.57;;;;;;;;;;5070190;28;20489;-63
2021/01/08 13:34:53;;;;;;;8.00;6.10;;;;;;;;;;5068135;28;20500;-63
2021/01/08 13:37:19;;;;;;;7.60;5.80;;;;;;;;;;5068655;28;20035;-62
2021/01/08 13:39:44;;;;;;;8.00;5.73;;;;;;;;;;5062289;28;20024;-62
2021/01/08 13:42:10;;;;;;;8.83;7.87;;;;;;;;;;5068689;28;20027;-62
2021/01/08 13:44:36;;;;;;;8.87;6.97;;;;;;;;;;5066396;28;20017;-62
2021/01/08 13:47:02;;;;;;;8.80;6.73;;;;;;;;;;5071887;28;20047;-62
2021/01/08 13:49:27;;;;;;;5.73;3.43;;;;;;;;;;5065806;28;20020;-62
2021/01/08 13:51:56;;;;;;;9.27;6.60;;;;;;;;;;5071246;28;20077;-63
2021/01/08 13:54:21;;;;;;;8.33;6.50;;;;;;;;;;5060523;28;20016;-62
2021/01/08 13:56:46;;;;;;;8.43;6.30;;;;;;;;;;5062293;28;20008;-63
2021/01/08 13:59:12;;;;;;;8.10;5.53;;;;;;;;;;5063187;28;20028;-62
2021/01/08 14:01:37;;;;;;;7.87;4.77;;;;;;;;;;5051954;28;20025;-64
2021/01/08 14:04:02;;;;;;;6.10;4.23;;;;;;;;;;5050473;28;20067;-62
2021/01/08 14:06:27;;;;;;;9.33;7.20;;;;;;;;;;5061737;28;20468;-62
2021/01/08 14:08:53;;;;;;;8.80;7.13;;;;;;;;;;5068051;28;20517;-62
2021/01/08 14:11:28;;;;;;;7.80;5.53;;;;;;;;;;5057299;28;20522;-63
2021/01/08 14:13:54;;;;;;;8.30;6.05;;;;;;;;;;5065264;28;20027;-63
2021/01/08 14:16:20;;;;;;;7.60;6.23;;;;;;;;;;5067637;28;20112;-63
2021/01/08 14:18:46;;;;;;;4.33;3.23;;;;;;;;;;5064450;28;20471;-63
2021/01/08 14:21:11;;;;;;;7.27;5.13;;;;;;;;;;5054883;28;20097;-63
2021/01/08 14:23:37;;;;;;;8.07;4.97;;;;;;;;;;5060251;28;20043;-62
2021/01/08 14:26:02;;;;;;;7.87;5.07;;;;;;;;;;5062986;28;20028;-63